Airfield :
LOGIN :

Register | Disclaimer

   EN    FR    IT 

 










Legend :    VFR   Marginal VFR   IFR   Intensive IFR   Very Intensive IFR
Visi :
Ceiling :
>= 8 km
>= 3000ft
5 to 8 km
1000 to 3000 ft
1500m to 5 km
500 to 1000 ft
800 to 1500m
200 to 500 ft
< 800m
< 200 ft
Symbols :   Thunderstorms  Fog  Heavy snow  Heavy precipitations  Wind > 20 kt
SIGMETs :     Misc.  Thunderstorms  Icing  Turbulence  Mountain Waves  Volcanic Ashes







- Airport Elevation : 72 ft
- IATA code : UDE


EHVK - Volkel Airbase

CURRENT METAR :
  • 232355Z AUTO 20006KT 160V230 9999 SCT110 SCT300 07/06 Q1008 BLU

EXPIRED METARs :
  • 232325Z AUTO 20008KT 9999 FEW034 OVC110 08/06 Q1008 BLU
  • 232255Z AUTO 20008KT 170V230 9999 FEW290 08/06 Q1008 BLU
  • 232225Z AUTO 20007KT 160V230 9999 FEW034 SCT280 08/05 Q1008 BLU
  • 232155Z AUTO 21009KT 170V240 9999 OVC110 08/05 Q1008 BLU
  • 232125Z AUTO 20008KT 170V230 9999 SCT110 BKN270 08/05 Q1008 BLU

TAF TAF EHVK
Valid from the 23 at 22:00 until the 24 at 10:00 UTC


232109Z 2322/2410 22006KT 9999 FEW035
BECMG 2323/2402 VRB03KT 7000 -RA OVC024
PROB30 2404/2410 27010G20KT 3000 SHRA TSRA FEW008 SCT015CB BKN020
No reported NOTAMs for that airfield.



MET'MAP, your aeronautical weather chart ! - Copyright ORBIFLY December 2007 - Disclaimer

ORBIFLY MET'MAP TEAM :

Programming & Development : Alexandra Zaïnal
Concept & Development : Baudouin d'Aumeries
Co-Development & Prog : Marc-Olivier Méhu
Technical & hardware support : Manuel Goepfert

Contact : metmap@orbifly.com




SOURCES & CREDITS :

   NOAA